Time;durP1;ratioP1;P1;durP2;ratioP2;P2;SDS_P1;SDS_P2;PMS_P1;PMS_P2;Temp;Humidity;BMP_temperature;BMP_pressure;BME280_temperature;BME280_humidity;BME280_pressure;Samples;Min_cycle;Max_cycle;Signal;HPM_P1;HPM_P2
2021/07/30 00:00:12;;;;;;;12.69;8.73;;;;;;;;;;351297;151;857250;-65
2021/07/30 00:01:14;;;;;;;13.28;8.97;;;;;;;;;;351558;151;858487;-65
2021/07/30 00:02:16;;;;;;;13.76;8.81;;;;;;;;;;350939;151;857354;-64
2021/07/30 00:03:17;;;;;;;13.91;8.37;;;;;;;;;;348118;151;857226;-64
2021/07/30 00:04:19;;;;;;;13.89;8.63;;;;;;;;;;346460;153;864960;-66
2021/07/30 00:05:20;;;;;;;12.64;7.64;;;;;;;;;;348516;151;857369;-64
2021/07/30 00:06:22;;;;;;;11.47;8.03;;;;;;;;;;350483;151;857419;-64
2021/07/30 00:07:25;;;;;;;16.94;8.96;;;;;;;;;;356415;151;857410;-64
2021/07/30 00:08:27;;;;;;;13.93;8.11;;;;;;;;;;354397;149;857360;-66
2021/07/30 00:09:28;;;;;;;17.29;9.14;;;;;;;;;;352995;149;857397;-66
2021/07/30 00:10:32;;;;;;;13.03;8.62;;;;;;;;;;351523;152;857414;-67
2021/07/30 00:11:33;;;;;;;16.61;8.74;;;;;;;;;;349639;151;857281;-64
2021/07/30 00:12:35;;;;;;;10.99;7.91;;;;;;;;;;353525;149;859017;-64
2021/07/30 00:13:36;;;;;;;10.41;7.63;;;;;;;;;;347432;151;858096;-64
2021/07/30 00:14:38;;;;;;;11.17;7.84;;;;;;;;;;346713;152;858872;-65
2021/07/30 00:15:39;;;;;;;11.66;7.91;;;;;;;;;;351224;152;859314;-64
2021/07/30 00:16:41;;;;;;;11.12;7.85;;;;;;;;;;344889;153;857239;-65
2021/07/30 00:17:43;;;;;;;15.85;8.41;;;;;;;;;;350294;154;857704;-64
2021/07/30 00:18:45;;;;;;;11.26;7.81;;;;;;;;;;352512;150;857318;-64
2021/07/30 00:19:46;;;;;;;12.01;7.66;;;;;;;;;;352922;150;864858;-65
2021/07/30 00:20:50;;;;;;;17.84;8.39;;;;;;;;;;344856;151;857357;-64
2021/07/30 00:21:51;;;;;;;14.85;8.31;;;;;;;;;;349066;154;858997;-64
2021/07/30 00:22:53;;;;;;;10.65;7.86;;;;;;;;;;350101;153;857349;-66
2021/07/30 00:23:54;;;;;;;12.56;7.44;;;;;;;;;;351682;151;857317;-64
2021/07/30 00:24:56;;;;;;;10.66;7.27;;;;;;;;;;350311;154;858940;-64
2021/07/30 00:26:01;;;;;;;13.18;6.41;;;;;;;;;;351284;151;858193;-64
2021/07/30 00:27:03;;;;;;;12.32;6.79;;;;;;;;;;346776;152;858622;-64
2021/07/30 00:28:05;;;;;;;12.65;7.77;;;;;;;;;;348532;154;858644;-64
2021/07/30 00:29:07;;;;;;;12.95;6.80;;;;;;;;;;351627;151;858088;-64
2021/07/30 00:30:10;;;;;;;11.45;7.49;;;;;;;;;;342880;152;866536;-65
2021/07/30 00:31:12;;;;;;;11.90;6.97;;;;;;;;;;346071;153;857379;-64
2021/07/30 00:32:13;;;;;;;10.45;6.82;;;;;;;;;;345757;155;859090;-64
2021/07/30 00:33:15;;;;;;;13.25;7.80;;;;;;;;;;350378;152;866649;-64
2021/07/30 00:34:16;;;;;;;9.96;6.61;;;;;;;;;;351145;150;857085;-64
2021/07/30 00:35:18;;;;;;;9.50;6.78;;;;;;;;;;352307;153;858878;-64
2021/07/30 00:36:21;;;;;;;8.99;6.13;;;;;;;;;;352127;151;858991;-65
2021/07/30 00:37:22;;;;;;;9.71;6.53;;;;;;;;;;350056;151;866742;-64
2021/07/30 00:38:24;;;;;;;8.17;6.18;;;;;;;;;;351338;153;857517;-64
2021/07/30 00:39:25;;;;;;;9.61;6.30;;;;;;;;;;351655;153;857465;-64
2021/07/30 00:40:28;;;;;;;11.98;6.31;;;;;;;;;;350661;152;859526;-64
2021/07/30 00:41:35;;;;;;;7.33;5.89;;;;;;;;;;351482;151;857635;-64
2021/07/30 00:42:33;;;;;;;11.36;6.19;;;;;;;;;;350162;153;858177;-64
2021/07/30 00:43:34;;;;;;;13.69;6.55;;;;;;;;;;349755;153;857408;-64
2021/07/30 00:44:36;;;;;;;8.12;6.45;;;;;;;;;;349573;151;857388;-64
2021/07/30 00:45:38;;;;;;;8.89;6.52;;;;;;;;;;350257;152;857240;-65
2021/07/30 00:46:40;;;;;;;13.26;6.23;;;;;;;;;;352687;152;866691;-65
2021/07/30 00:47:41;;;;;;;10.12;5.85;;;;;;;;;;351151;152;857317;-65
2021/07/30 00:48:43;;;;;;;9.14;6.01;;;;;;;;;;351537;151;857347;-64
2021/07/30 00:49:45;;;;;;;8.39;5.73;;;;;;;;;;351688;153;859157;-64
2021/07/30 00:50:46;;;;;;;7.19;6.47;;;;;;;;;;350847;152;859494;-64
2021/07/30 00:51:48;;;;;;;8.92;6.76;;;;;;;;;;350781;151;858977;-65
2021/07/30 00:52:51;;;;;;;13.58;6.64;;;;;;;;;;349866;154;857270;-64
2021/07/30 00:53:52;;;;;;;9.58;5.83;;;;;;;;;;350126;153;857337;-64
2021/07/30 00:54:54;;;;;;;9.56;5.69;;;;;;;;;;351251;151;857282;-64
2021/07/30 00:55:57;;;;;;;8.35;5.93;;;;;;;;;;352673;152;857229;-64
2021/07/30 00:56:59;;;;;;;9.13;6.11;;;;;;;;;;346269;155;857212;-64
2021/07/30 00:58:01;;;;;;;9.01;5.77;;;;;;;;;;354069;149;857475;-64
2021/07/30 00:59:03;;;;;;;7.21;5.85;;;;;;;;;;350019;152;857270;-65
2021/07/30 01:00:06;;;;;;;11.67;5.89;;;;;;;;;;349851;154;858231;-64
2021/07/30 01:01:08;;;;;;;10.17;6.61;;;;;;;;;;351235;151;857343;-65
2021/07/30 01:02:09;;;;;;;8.33;5.81;;;;;;;;;;348552;151;861048;-64
2021/07/30 01:03:11;;;;;;;14.55;6.39;;;;;;;;;;348262;152;857325;-65
2021/07/30 01:04:12;;;;;;;9.00;6.01;;;;;;;;;;348892;153;857306;-65
2021/07/30 01:27:11;;;;;;;7.09;5.85;;;;;;;21.56;68.56;99168.21;368460;142;879532;-66
2021/07/30 01:28:12;;;;;;;6.51;5.23;;;;;;;21.49;68.48;99176.64;364014;147;860821;-66
2021/07/30 01:29:14;;;;;;;9.90;6.27;;;;;;;21.51;68.48;99177.37;365965;147;865173;-67
2021/07/30 01:30:19;;;;;;;9.66;5.58;;;;;;;21.45;68.68;99176.84;364818;146;865013;-66
2021/07/30 01:31:21;;;;;;;9.38;5.60;;;;;;;21.34;69.04;99181.97;365931;147;860010;-66
2021/07/30 01:32:22;;;;;;;9.46;5.84;;;;;;;21.36;68.89;99180.08;363135;147;858949;-66
2021/07/30 01:33:24;;;;;;;10.06;5.87;;;;;;;21.27;69.18;99180.67;363339;146;865994;-63
2021/07/30 01:34:26;;;;;;;7.29;5.56;;;;;;;21.22;69.55;99180.95;366097;147;865090;-64
2021/07/30 01:35:28;;;;;;;10.33;5.29;;;;;;;21.20;69.72;99181.98;365840;146;865754;-64
2021/07/30 01:36:30;;;;;;;7.96;5.69;;;;;;;21.11;70.06;99188.70;365468;147;865920;-63
2021/07/30 01:37:32;;;;;;;7.11;4.73;;;;;;;21.14;69.88;99191.97;364570;146;859070;-63
2021/07/30 01:38:34;;;;;;;7.17;4.73;;;;;;;21.21;69.65;99216.13;366006;147;857405;-66
2021/07/30 01:39:36;;;;;;;6.48;4.95;;;;;;;21.21;69.65;99216.13;364639;147;858799;-66
2021/07/30 01:40:38;;;;;;;6.73;5.07;;;;;;;21.24;69.54;99186.14;364695;146;858340;-65
2021/07/30 01:41:40;;;;;;;7.57;5.48;;;;;;;21.27;69.44;99188.58;365722;147;857279;-65
2021/07/30 01:42:42;;;;;;;8.87;5.21;;;;;;;21.30;69.26;99193.64;358528;149;857318;-65
2021/07/30 01:43:44;;;;;;;6.23;5.31;;;;;;;21.34;69.13;99192.50;351409;152;865566;-65
2021/07/30 01:44:46;;;;;;;10.03;5.68;;;;;;;21.37;68.90;99191.44;357688;149;857333;-65
2021/07/30 01:45:48;;;;;;;8.16;5.24;;;;;;;21.38;68.78;99193.13;359422;150;865103;-65
2021/07/30 01:46:50;;;;;;;11.44;5.84;;;;;;;21.38;68.77;99187.86;357727;149;865869;-65
2021/07/30 01:47:52;;;;;;;11.91;5.71;;;;;;;21.38;68.81;99193.98;356853;149;857400;-66
2021/07/30 01:48:54;;;;;;;6.89;5.73;;;;;;;21.42;68.78;99194.61;356691;150;866265;-65
2021/07/30 01:49:56;;;;;;;10.27;6.43;;;;;;;21.42;68.72;99197.25;358020;149;864825;-65
2021/07/30 01:50:58;;;;;;;8.89;6.07;;;;;;;21.43;68.78;99196.30;357760;149;865034;-65
2021/07/30 01:52:00;;;;;;;7.94;5.38;;;;;;;21.43;68.57;99191.03;359435;150;857259;-65
2021/07/30 01:53:02;;;;;;;9.41;6.19;;;;;;;21.45;68.51;99190.00;359446;150;866578;-65
2021/07/30 01:54:04;;;;;;;9.69;5.99;;;;;;;21.49;68.43;99192.44;359649;149;858247;-65
2021/07/30 01:55:08;;;;;;;8.59;6.18;;;;;;;21.50;68.33;99184.42;358463;149;857407;-64
2021/07/30 01:56:10;;;;;;;9.11;5.96;;;;;;;21.49;68.26;99190.63;359014;150;857367;-64
2021/07/30 01:57:11;;;;;;;16.97;6.48;;;;;;;;;;358843;150;857725;-67
2021/07/30 01:58:13;;;;;;;11.31;6.51;;;;;;;;;;357962;150;865070;-66
2021/07/30 01:59:14;;;;;;;10.72;6.57;;;;;;;;;;355585;151;858193;-67
2021/07/30 02:00:17;;;;;;;10.13;6.07;;;;;;;;;;357732;150;858676;-67
2021/07/30 02:01:19;;;;;;;8.99;6.21;;;;;;;;;;357218;149;859223;-67
2021/07/30 02:02:20;;;;;;;10.25;6.54;;;;;;;;;;359483;149;865078;-65
2021/07/30 02:03:22;;;;;;;9.09;6.49;;;;;;;;;;359276;150;858264;-66
2021/07/30 02:04:24;;;;;;;10.26;6.59;;;;;;;;;;357631;149;857544;-68
2021/07/30 02:05:25;;;;;;;9.10;6.12;;;;;;;;;;350880;151;866830;-67
2021/07/30 02:06:27;;;;;;;10.69;6.10;;;;;;;;;;351470;150;857461;-67
2021/07/30 02:07:29;;;;;;;13.39;6.13;;;;;;;;;;358784;149;857372;-67
2021/07/30 02:08:30;;;;;;;9.94;6.16;;;;;;;;;;358023;149;857398;-68
2021/07/30 02:09:32;;;;;;;11.85;6.61;;;;;;;;;;355850;150;865923;-68
2021/07/30 02:10:35;;;;;;;9.94;5.85;;;;;;;;;;357152;150;857191;-68
2021/07/30 02:11:38;;;;;;;9.70;5.57;;;;;;;;;;358326;149;857408;-68
2021/07/30 02:14:15;;;;;;;15.66;7.06;;;;;;;;;;358746;150;857927;-68
2021/07/30 02:15:17;;;;;;;10.40;5.97;;;;;;;;;;357683;149;866593;-68
2021/07/30 02:16:20;;;;;;;10.96;6.41;;;;;;;;;;358809;149;857394;-68
2021/07/30 02:17:21;;;;;;;8.16;6.17;;;;;;;;;;359266;149;864894;-67
2021/07/30 02:18:23;;;;;;;9.96;6.00;;;;;;;;;;359350;149;858790;-67
2021/07/30 02:19:25;;;;;;;8.41;5.92;;;;;;;;;;357831;149;865062;-66
2021/07/30 02:20:27;;;;;;;8.59;5.83;;;;;;;;;;357983;150;859102;-66
2021/07/30 02:21:29;;;;;;;10.89;6.04;;;;;;;;;;355456;150;857405;-66
2021/07/30 02:22:30;;;;;;;10.17;6.51;;;;;;;;;;359231;149;865777;-66
2021/07/30 02:23:32;;;;;;;12.49;6.39;;;;;;;;;;359322;150;865221;-66
2021/07/30 02:24:34;;;;;;;9.07;5.97;;;;;;;;;;359435;150;866872;-65
2021/07/30 02:25:36;;;;;;;12.49;6.41;;;;;;;;;;358985;149;857961;-65
2021/07/30 02:26:39;;;;;;;8.51;5.66;;;;;;;;;;358196;149;857857;-65
2021/07/30 02:27:41;;;;;;;9.38;6.04;;;;;;;;;;357904;150;858890;-65
2021/07/30 02:28:43;;;;;;;9.53;6.31;;;;;;;;;;358864;150;865674;-65
2021/07/30 02:29:45;;;;;;;8.57;5.99;;;;;;;;;;358081;149;857361;-65
2021/07/30 02:30:48;;;;;;;9.60;6.16;;;;;;;;;;353610;150;858252;-65
2021/07/30 02:31:49;;;;;;;9.31;5.74;;;;;;;;;;357934;150;857321;-65
2021/07/30 02:32:51;;;;;;;8.46;6.29;;;;;;;;;;356255;149;859239;-64
2021/07/30 02:33:53;;;;;;;11.22;5.78;;;;;;;;;;358848;147;864933;-64
2021/07/30 02:34:55;;;;;;;7.66;6.62;;;;;;;;;;354586;149;866760;-64
2021/07/30 02:35:56;;;;;;;11.63;6.39;;;;;;;;;;357485;149;858586;-65
2021/07/30 02:36:58;;;;;;;8.49;5.96;;;;;;;;;;356895;149;857337;-64
2021/07/30 02:38:00;;;;;;;8.26;5.99;;;;;;;;;;360030;149;857162;-64
2021/07/30 02:39:02;;;;;;;9.61;6.67;;;;;;;;;;358430;149;864810;-64
2021/07/30 02:40:05;;;;;;;11.03;6.04;;;;;;;;;;357236;149;856529;-65
2021/07/30 02:41:06;;;;;;;8.17;6.15;;;;;;;;;;358753;149;857195;-65
2021/07/30 02:42:08;;;;;;;12.12;6.61;;;;;;;;;;351924;153;856870;-65
2021/07/30 02:43:10;;;;;;;14.41;6.19;;;;;;;;;;359171;149;864073;-65
2021/07/30 02:44:11;;;;;;;7.76;6.03;;;;;;;;;;358177;149;856163;-63
2021/07/30 02:45:13;;;;;;;7.45;5.90;;;;;;;;;;351714;153;857099;-63
2021/07/30 02:46:19;;;;;;;10.73;6.07;;;;;;;;;;354970;149;857286;-64
2021/07/30 02:47:21;;;;;;;8.52;6.02;;;;;;;;;;357006;149;859507;-64
2021/07/30 02:48:23;;;;;;;8.27;5.37;;;;;;;;;;351580;153;857305;-64
2021/07/30 02:49:24;;;;;;;10.82;6.07;;;;;;;;;;357837;149;865647;-64
2021/07/30 02:50:26;;;;;;;11.21;6.10;;;;;;;;;;355744;149;857363;-64
2021/07/30 02:51:28;;;;;;;8.64;6.16;;;;;;;;;;357783;150;857552;-65
2021/07/30 02:52:30;;;;;;;13.73;6.41;;;;;;;;;;352733;152;857554;-64
2021/07/30 02:53:32;;;;;;;9.07;6.37;;;;;;;;;;356568;150;856684;-64
2021/07/30 02:54:33;;;;;;;8.80;6.01;;;;;;;;;;358262;149;859062;-64
2021/07/30 02:55:35;;;;;;;8.19;6.44;;;;;;;;;;358796;150;864933;-64
2021/07/30 02:56:38;;;;;;;14.06;6.19;;;;;;;;;;356860;150;865071;-64
2021/07/30 02:57:39;;;;;;;11.10;6.04;;;;;;;;;;358375;149;858067;-63
2021/07/30 02:58:41;;;;;;;13.87;6.09;;;;;;;;;;358733;150;859120;-64
2021/07/30 02:59:42;;;;;;;12.31;6.76;;;;;;;;;;357563;150;857255;-64
2021/07/30 03:00:45;;;;;;;12.98;6.39;;;;;;;;;;358602;149;857265;-64
2021/07/30 03:01:47;;;;;;;10.31;5.96;;;;;;;;;;359180;150;859214;-64
2021/07/30 03:02:49;;;;;;;10.57;6.30;;;;;;;;;;357362;150;864970;-64
2021/07/30 03:03:51;;;;;;;9.32;6.14;;;;;;;;;;356139;149;865263;-64
2021/07/30 03:04:53;;;;;;;9.53;6.63;;;;;;;;;;358946;149;858818;-64
2021/07/30 03:05:56;;;;;;;10.21;6.45;;;;;;;;;;358839;149;863878;-64
2021/07/30 03:06:58;;;;;;;10.21;6.42;;;;;;;;;;357420;149;865406;-64
2021/07/30 03:08:00;;;;;;;11.64;6.68;;;;;;;;;;356822;149;858991;-64
2021/07/30 03:09:02;;;;;;;7.36;6.01;;;;;;;;;;358418;150;857292;-64
2021/07/30 03:10:04;;;;;;;8.93;5.74;;;;;;;;;;357667;150;857395;-64
2021/07/30 03:11:06;;;;;;;9.37;6.76;;;;;;;;;;357909;149;857428;-65
2021/07/30 03:12:08;;;;;;;11.42;6.76;;;;;;;;;;358155;149;864970;-65
2021/07/30 03:13:09;;;;;;;8.54;6.26;;;;;;;;;;358615;150;860289;-65
2021/07/30 03:14:11;;;;;;;9.01;6.44;;;;;;;;;;356028;149;857198;-64
2021/07/30 03:15:13;;;;;;;8.23;6.36;;;;;;;;;;358537;149;857371;-63
2021/07/30 03:16:15;;;;;;;18.03;6.80;;;;;;;;;;358486;149;858516;-64
2021/07/30 03:17:16;;;;;;;9.04;6.55;;;;;;;;;;353578;150;859206;-64
2021/07/30 03:18:18;;;;;;;10.04;6.33;;;;;;;;;;358528;149;857343;-64
2021/07/30 03:19:19;;;;;;;8.51;6.34;;;;;;;;;;357660;150;858914;-64
2021/07/30 03:20:22;;;;;;;12.99;7.09;;;;;;;;;;351427;152;857878;-64
2021/07/30 03:21:24;;;;;;;12.99;6.62;;;;;;;;;;358443;148;859204;-64
2021/07/30 03:22:25;;;;;;;7.21;6.29;;;;;;;;;;358802;149;866953;-64
2021/07/30 03:23:27;;;;;;;7.94;6.17;;;;;;;;;;358486;150;866903;-64
2021/07/30 03:24:29;;;;;;;13.08;6.02;;;;;;;;;;357747;150;859094;-63
2021/07/30 03:25:30;;;;;;;10.59;6.11;;;;;;;;;;357621;149;865099;-63
2021/07/30 03:26:34;;;;;;;9.36;6.79;;;;;;;;;;354058;149;856746;-64
2021/07/30 03:27:35;;;;;;;11.31;7.05;;;;;;;;;;358134;150;857184;-64
2021/07/30 03:28:37;;;;;;;10.88;6.79;;;;;;;;;;356132;149;857201;-64
2021/07/30 03:29:39;;;;;;;9.01;6.99;;;;;;;;;;357404;149;865377;-64
2021/07/30 03:30:42;;;;;;;9.98;6.69;;;;;;;;;;356763;150;864905;-64
2021/07/30 03:31:48;;;;;;;9.46;6.19;;;;;;;;;;359164;149;858205;-63
2021/07/30 03:32:47;;;;;;;8.61;6.86;;;;;;;;;;357174;149;858837;-64
2021/07/30 03:33:49;;;;;;;9.99;6.54;;;;;;;;;;359086;150;857279;-64
2021/07/30 03:34:50;;;;;;;8.25;6.03;;;;;;;;;;357536;150;858804;-64
2021/07/30 03:35:52;;;;;;;9.53;6.37;;;;;;;;;;357943;149;857774;-63
2021/07/30 03:36:55;;;;;;;9.32;6.84;;;;;;;;;;356837;150;857310;-64
2021/07/30 03:37:56;;;;;;;8.47;7.46;;;;;;;;;;357250;150;859517;-64
2021/07/30 03:38:58;;;;;;;8.14;6.49;;;;;;;;;;357298;149;857400;-66
2021/07/30 03:40:00;;;;;;;12.28;7.35;;;;;;;;;;357999;148;866712;-65
2021/07/30 03:41:02;;;;;;;11.96;7.49;;;;;;;;;;357799;148;858064;-64
2021/07/30 03:42:04;;;;;;;11.19;7.23;;;;;;;;;;358910;149;859225;-64
2021/07/30 03:43:06;;;;;;;9.42;6.82;;;;;;;;;;359488;148;858765;-64
2021/07/30 03:44:08;;;;;;;10.47;7.02;;;;;;;;;;358480;149;859293;-64
2021/07/30 03:45:10;;;;;;;10.27;7.27;;;;;;;;;;357342;148;857650;-64
2021/07/30 03:46:12;;;;;;;12.44;7.42;;;;;;;;;;358027;150;857321;-66
2021/07/30 03:47:14;;;;;;;12.14;7.85;;;;;;;;;;359380;149;858653;-63
2021/07/30 03:48:16;;;;;;;10.99;7.19;;;;;;;;;;357843;148;857339;-63
2021/07/30 03:49:17;;;;;;;13.39;7.84;;;;;;;;;;357950;150;857245;-64
2021/07/30 03:50:20;;;;;;;8.50;7.42;;;;;;;;;;358034;149;866792;-64
2021/07/30 03:51:21;;;;;;;13.56;7.87;;;;;;;;;;353696;150;859027;-64
2021/07/30 03:52:23;;;;;;;9.29;6.89;;;;;;;;;;358413;150;858901;-64
2021/07/30 03:53:25;;;;;;;12.69;7.64;;;;;;;;;;358404;149;866867;-65
2021/07/30 03:54:26;;;;;;;8.60;7.15;;;;;;;;;;356924;148;865036;-64
2021/07/30 03:55:30;;;;;;;9.54;7.33;;;;;;;;;;354480;149;857585;-64
2021/07/30 03:56:33;;;;;;;10.84;7.47;;;;;;;;;;357890;150;857462;-64
2021/07/30 03:57:35;;;;;;;11.79;7.62;;;;;;;;;;358692;149;857731;-65
2021/07/30 03:58:37;;;;;;;8.47;7.25;;;;;;;;;;359869;149;866352;-64
2021/07/30 03:59:38;;;;;;;13.20;7.56;;;;;;;;;;359177;149;859639;-65
2021/07/30 04:00:41;;;;;;;10.65;7.24;;;;;;;;;;357297;148;864294;-64
2021/07/30 04:01:48;;;;;;;11.51;7.39;;;;;;;;;;356727;150;857364;-65
2021/07/30 04:02:50;;;;;;;12.21;8.14;;;;;;;;;;357950;150;865403;-65
2021/07/30 04:03:52;;;;;;;12.94;7.61;;;;;;;;;;350373;152;857777;-64
2021/07/30 04:04:54;;;;;;;11.58;7.19;;;;;;;;;;350126;153;865129;-65
2021/07/30 04:05:55;;;;;;;9.16;7.55;;;;;;;;;;355729;148;859056;-63
2021/07/30 04:06:57;;;;;;;11.93;7.19;;;;;;;;;;358867;149;857955;-66
2021/07/30 04:07:59;;;;;;;10.78;7.69;;;;;;;;;;358173;148;858970;-64
2021/07/30 04:09:02;;;;;;;8.82;7.29;;;;;;;;;;356826;150;859149;-65
2021/07/30 04:10:04;;;;;;;11.23;7.64;;;;;;;;;;356547;150;866726;-65
2021/07/30 04:11:06;;;;;;;11.33;7.33;;;;;;;;;;356589;149;857383;-65
2021/07/30 04:12:08;;;;;;;11.69;7.91;;;;;;;;;;353432;149;857561;-65
2021/07/30 04:13:10;;;;;;;7.94;6.90;;;;;;;;;;353272;149;860036;-64
2021/07/30 04:14:11;;;;;;;8.96;7.11;;;;;;;;;;357807;150;857231;-64
2021/07/30 04:15:13;;;;;;;9.01;7.23;;;;;;;;;;355351;149;857307;-64
2021/07/30 04:16:16;;;;;;;9.49;7.41;;;;;;;;;;358321;150;859096;-63
2021/07/30 04:17:18;;;;;;;10.95;6.93;;;;;;;;;;358155;150;857228;-64
2021/07/30 04:18:19;;;;;;;7.99;6.76;;;;;;;;;;357557;149;861420;-64
2021/07/30 04:19:21;;;;;;;10.49;7.37;;;;;;;;;;358416;149;864975;-64
2021/07/30 04:20:23;;;;;;;13.16;7.65;;;;;;;;;;358009;149;858124;-64
2021/07/30 04:21:25;;;;;;;10.51;7.61;;;;;;;;;;357299;149;859194;-64
2021/07/30 04:22:27;;;;;;;10.49;7.43;;;;;;;;;;358839;148;866887;-64
2021/07/30 04:23:28;;;;;;;10.18;7.56;;;;;;;;;;357055;149;860436;-64
2021/07/30 04:24:30;;;;;;;9.22;7.49;;;;;;;;;;358035;149;864315;-64
2021/07/30 04:25:32;;;;;;;11.81;7.55;;;;;;;;;;357487;149;866835;-64
2021/07/30 04:26:34;;;;;;;10.41;7.86;;;;;;;;;;359121;150;857396;-65
2021/07/30 04:27:36;;;;;;;10.60;7.43;;;;;;;;;;358298;150;859053;-64
2021/07/30 04:28:37;;;;;;;10.89;7.05;;;;;;;;;;354916;149;865903;-66
2021/07/30 04:29:39;;;;;;;12.91;7.56;;;;;;;;;;345265;152;864964;-65
2021/07/30 04:30:43;;;;;;;12.44;7.42;;;;;;;;;;344754;153;865960;-65
2021/07/30 04:31:44;;;;;;;10.91;7.64;;;;;;;;;;356696;149;866717;-66
2021/07/30 04:32:46;;;;;;;10.40;7.62;;;;;;;;;;347109;153;865491;-66
2021/07/30 04:33:47;;;;;;;8.40;7.55;;;;;;;;;;358304;150;859829;-65
2021/07/30 04:34:49;;;;;;;8.42;7.29;;;;;;;;;;358393;149;858023;-64
2021/07/30 04:35:51;;;;;;;12.26;7.14;;;;;;;;;;357657;149;864735;-66
2021/07/30 04:36:53;;;;;;;9.97;7.35;;;;;;;;;;358647;150;859016;-65
2021/07/30 04:37:55;;;;;;;11.35;7.42;;;;;;;;;;357775;149;865020;-65
2021/07/30 04:38:57;;;;;;;10.27;7.23;;;;;;;;;;357630;149;859022;-65
2021/07/30 04:39:59;;;;;;;10.69;7.90;;;;;;;;;;352694;149;857307;-66
2021/07/30 04:41:05;;;;;;;10.62;7.93;;;;;;;;;;354763;149;857231;-65
2021/07/30 04:42:06;;;;;;;9.16;7.62;;;;;;;;;;357425;149;858768;-65
2021/07/30 04:43:08;;;;;;;11.43;7.59;;;;;;;;;;358715;148;857902;-66
2021/07/30 04:44:09;;;;;;;9.32;7.24;;;;;;;;;;358425;149;857270;-65
2021/07/30 04:45:11;;;;;;;10.48;7.31;;;;;;;;;;357088;150;867099;-65
2021/07/30 04:46:14;;;;;;;11.52;7.48;;;;;;;;;;357615;149;858424;-65
2021/07/30 04:47:16;;;;;;;11.67;7.39;;;;;;;;;;357996;149;857340;-65
2021/07/30 04:48:17;;;;;;;10.39;7.78;;;;;;;;;;357550;149;858995;-65
2021/07/30 04:49:19;;;;;;;14.39;7.30;;;;;;;;;;358506;149;865144;-65
2021/07/30 04:50:21;;;;;;;7.87;7.01;;;;;;;;;;357069;149;859148;-65
2021/07/30 04:51:23;;;;;;;10.24;7.81;;;;;;;;;;354191;150;859055;-65
2021/07/30 04:52:25;;;;;;;10.06;7.57;;;;;;;;;;352847;150;865960;-65
2021/07/30 04:53:27;;;;;;;10.94;8.33;;;;;;;;;;356754;149;866388;-65
2021/07/30 04:54:28;;;;;;;12.89;7.59;;;;;;;;;;359105;150;859169;-65
2021/07/30 04:55:30;;;;;;;12.04;7.95;;;;;;;;;;357884;149;866448;-65
2021/07/30 04:56:32;;;;;;;9.06;7.28;;;;;;;;;;358582;149;865157;-65
2021/07/30 04:57:34;;;;;;;10.35;8.26;;;;;;;;;;358263;150;857272;-65
2021/07/30 04:58:35;;;;;;;9.28;7.46;;;;;;;;;;354525;150;857219;-65
2021/07/30 04:59:37;;;;;;;8.91;7.39;;;;;;;;;;357479;149;858219;-65
2021/07/30 05:00:39;;;;;;;11.61;7.90;;;;;;;;;;360593;148;861264;-65
2021/07/30 05:01:42;;;;;;;10.16;8.16;;;;;;;;;;352660;151;860291;-65
2021/07/30 05:02:43;;;;;;;14.13;8.20;;;;;;;;;;349937;150;857264;-65
2021/07/30 05:03:45;;;;;;;9.99;7.84;;;;;;;;;;356820;149;857290;-65
2021/07/30 05:04:46;;;;;;;11.21;7.91;;;;;;;;;;357977;150;857283;-65
2021/07/30 05:05:48;;;;;;;10.02;7.49;;;;;;;;;;356146;149;865825;-65
2021/07/30 05:06:51;;;;;;;12.27;7.29;;;;;;;;;;357068;149;857345;-65
2021/07/30 05:07:52;;;;;;;10.20;7.95;;;;;;;;;;355900;149;857316;-65
2021/07/30 05:08:54;;;;;;;10.24;8.34;;;;;;;;;;358554;149;866661;-66
2021/07/30 05:09:55;;;;;;;9.09;7.83;;;;;;;;;;356847;149;856438;-66
2021/07/30 05:10:57;;;;;;;14.22;7.89;;;;;;;;;;355281;149;857354;-65
2021/07/30 05:11:59;;;;;;;12.09;8.20;;;;;;;;;;355487;149;865948;-66
2021/07/30 05:13:00;;;;;;;9.49;8.07;;;;;;;;;;357196;150;857323;-65
2021/07/30 05:14:02;;;;;;;10.88;7.95;;;;;;;;;;358464;149;859461;-65
2021/07/30 05:15:04;;;;;;;9.92;8.06;;;;;;;;;;356753;149;858819;-65
2021/07/30 05:16:10;;;;;;;8.55;7.61;;;;;;;;;;358382;150;857898;-66
2021/07/30 05:17:12;;;;;;;9.89;8.23;;;;;;;;;;358818;149;857284;-65
2021/07/30 05:18:13;;;;;;;16.06;8.17;;;;;;;;;;358011;149;856365;-66
2021/07/30 05:19:15;;;;;;;10.03;8.55;;;;;;;;;;358877;150;859535;-66
2021/07/30 05:20:18;;;;;;;10.35;8.00;;;;;;;;;;351917;150;857416;-66
2021/07/30 05:21:19;;;;;;;8.75;7.69;;;;;;;;;;350161;150;864953;-66
2021/07/30 05:22:21;;;;;;;10.10;7.67;;;;;;;;;;359063;149;857216;-65
2021/07/30 05:23:22;;;;;;;8.57;7.70;;;;;;;;;;358767;150;865649;-66
2021/07/30 05:24:24;;;;;;;9.79;8.07;;;;;;;;;;359476;149;857610;-66
2021/07/30 05:25:26;;;;;;;12.01;8.07;;;;;;;;;;359173;149;857364;-66
2021/07/30 05:26:28;;;;;;;11.93;8.23;;;;;;;;;;358847;150;865114;-65
2021/07/30 05:27:30;;;;;;;12.04;8.06;;;;;;;;;;358784;150;857403;-66
2021/07/30 05:28:31;;;;;;;9.46;7.84;;;;;;;;;;347947;152;858745;-66
2021/07/30 05:29:33;;;;;;;11.46;7.89;;;;;;;;;;343855;154;866075;-66
2021/07/30 05:30:36;;;;;;;9.19;8.21;;;;;;;;;;345495;153;859929;-66
2021/07/30 05:31:38;;;;;;;9.67;7.84;;;;;;;;;;346040;154;859087;-66
2021/07/30 05:32:40;;;;;;;9.61;7.89;;;;;;;;;;346221;154;857457;-63
2021/07/30 05:33:41;;;;;;;11.09;7.87;;;;;;;;;;344225;153;864818;-64
2021/07/30 05:34:43;;;;;;;9.56;7.47;;;;;;;;;;345927;154;857226;-64
2021/07/30 05:35:44;;;;;;;9.88;7.68;;;;;;;;;;345692;154;866728;-64
2021/07/30 05:36:48;;;;;;;10.08;7.88;;;;;;;;;;341033;155;858570;-65
2021/07/30 05:37:49;;;;;;;10.02;7.43;;;;;;;;;;343149;153;857402;-64
2021/07/30 05:38:51;;;;;;;10.66;8.01;;;;;;;;;;345415;154;857476;-65
2021/07/30 05:39:53;;;;;;;11.29;8.59;;;;;;;;;;346891;155;857381;-65
2021/07/30 05:40:55;;;;;;;9.69;7.95;;;;;;;;;;346499;153;857352;-64
2021/07/30 05:41:56;;;;;;;10.35;7.89;;;;;;;;;;343841;155;857390;-65
2021/07/30 05:42:58;;;;;;;10.42;7.81;;;;;;;;;;344723;155;865916;-64
2021/07/30 05:44:00;;;;;;;9.33;7.63;;;;;;;;;;344833;155;864914;-65
2021/07/30 05:45:01;;;;;;;10.02;7.99;;;;;;;;;;346412;154;857214;-65
2021/07/30 05:46:04;;;;;;;10.11;7.88;;;;;;;;;;344631;153;857726;-65
2021/07/30 05:47:06;;;;;;;10.39;7.55;;;;;;;;;;341655;155;857319;-65
2021/07/30 05:48:08;;;;;;;11.39;7.19;;;;;;;;;;347370;155;859840;-65
2021/07/30 05:49:09;;;;;;;8.40;7.53;;;;;;;;;;344750;155;864913;-66
2021/07/30 05:50:12;;;;;;;10.19;7.16;;;;;;;;;;346740;155;858206;-65
2021/07/30 05:51:13;;;;;;;8.63;7.54;;;;;;;;;;342290;155;859393;-65
2021/07/30 05:52:16;;;;;;;9.24;7.72;;;;;;;;;;346641;154;859674;-65
2021/07/30 05:53:17;;;;;;;10.29;7.90;;;;;;;;;;343506;153;865013;-65
2021/07/30 05:54:19;;;;;;;10.21;7.50;;;;;;;;;;346347;155;857369;-65
2021/07/30 05:55:21;;;;;;;8.93;7.32;;;;;;;;;;346230;154;857239;-65
2021/07/30 05:56:23;;;;;;;9.46;7.54;;;;;;;;;;346808;154;857203;-65
2021/07/30 05:57:25;;;;;;;8.17;6.98;;;;;;;;;;347502;155;858001;-65
2021/07/30 05:58:26;;;;;;;10.04;7.39;;;;;;;;;;347477;155;857612;-65
2021/07/30 05:59:28;;;;;;;9.62;7.80;;;;;;;;;;346523;154;858743;-64
2021/07/30 06:00:32;;;;;;;10.48;7.70;;;;;;;;;;342928;155;858008;-66
2021/07/30 06:01:33;;;;;;;10.63;7.65;;;;;;;;;;344851;155;859142;-65
2021/07/30 06:02:35;;;;;;;13.78;7.33;;;;;;;;;;349563;152;859202;-65
2021/07/30 06:03:37;;;;;;;11.09;8.34;;;;;;;;;;344721;154;859060;-64
2021/07/30 06:04:38;;;;;;;10.65;7.19;;;;;;;;;;345005;153;857300;-65
2021/07/30 06:05:40;;;;;;;11.83;7.69;;;;;;;;;;343507;153;860346;-64
2021/07/30 06:06:42;;;;;;;9.38;7.88;;;;;;;;;;348958;152;857186;-65
2021/07/30 06:07:43;;;;;;;9.19;7.71;;;;;;;;;;344171;155;857503;-65
2021/07/30 06:08:45;;;;;;;9.54;8.33;;;;;;;;;;350739;153;857562;-65
2021/07/30 06:09:47;;;;;;;10.34;8.06;;;;;;;;;;350852;152;857278;-65
2021/07/30 06:10:51;;;;;;;9.59;8.18;;;;;;;;;;346158;153;866406;-65
2021/07/30 06:11:52;;;;;;;10.04;7.68;;;;;;;;;;350691;153;859139;-65
2021/07/30 06:12:54;;;;;;;10.74;7.94;;;;;;;;;;345299;153;866248;-65
2021/07/30 06:13:56;;;;;;;9.18;7.74;;;;;;;;;;345606;154;869081;-65
2021/07/30 06:14:57;;;;;;;8.11;7.05;;;;;;;;;;346416;155;865604;-65
2021/07/30 06:15:59;;;;;;;8.25;6.64;;;;;;;;;;348662;153;864878;-65
2021/07/30 06:17:01;;;;;;;7.97;7.17;;;;;;;;;;349439;152;857477;-64
2021/07/30 06:18:03;;;;;;;10.48;6.84;;;;;;;;;;351260;153;857202;-65